createdAt,value
2023-02-14T00:02:13.820Z,17.47
2023-02-14T00:04:46.022Z,16.40
2023-02-14T00:07:14.849Z,13.17
2023-02-14T00:09:43.191Z,17.23
2023-02-14T00:12:11.546Z,16.07
2023-02-14T00:14:56.711Z,14.77
2023-02-14T00:17:25.969Z,15.67
2023-02-14T00:19:58.445Z,13.87
2023-02-14T00:22:26.554Z,13.77
2023-02-14T00:24:56.405Z,14.90
2023-02-14T00:27:26.179Z,13.07
2023-02-14T00:29:55.206Z,14.77
2023-02-14T00:32:24.945Z,16.07
2023-02-14T00:34:53.588Z,16.53
2023-02-14T00:37:23.951Z,16.53
2023-02-14T00:39:52.924Z,15.30
2023-02-14T00:42:21.615Z,16.50
2023-02-14T00:44:50.251Z,17.53
2023-02-14T00:47:18.331Z,20.40
2023-02-14T00:49:46.760Z,18.07
2023-02-14T00:52:16.229Z,18.40
2023-02-14T00:54:48.102Z,19.23
2023-02-14T00:57:17.314Z,17.20
2023-02-14T00:59:47.164Z,16.97
2023-02-14T01:02:15.642Z,20.40
2023-02-14T01:04:45.183Z,20.90
2023-02-14T01:07:15.915Z,17.17
2023-02-14T01:09:44.238Z,21.47
2023-02-14T01:12:13.927Z,20.03
2023-02-14T01:14:42.304Z,19.73
2023-02-14T01:17:10.569Z,16.43
2023-02-14T01:19:42.564Z,16.00
2023-02-14T01:22:10.652Z,16.17
2023-02-14T01:24:39.775Z,17.30
2023-02-14T01:27:07.952Z,16.00
2023-02-14T01:29:38.139Z,17.70
2023-02-14T01:32:06.908Z,19.10
2023-02-14T01:34:37.899Z,16.33
2023-02-14T01:37:06.206Z,17.13
2023-02-14T01:39:34.645Z,18.50
2023-02-14T01:42:03.352Z,15.93
2023-02-14T01:45:07.366Z,18.23
2023-02-14T01:47:40.302Z,17.47
2023-02-14T01:50:16.220Z,17.90
2023-02-14T01:52:48.656Z,17.20
2023-02-14T01:55:19.982Z,18.97
2023-02-14T01:57:53.429Z,19.17
2023-02-14T02:00:42.725Z,18.50
2023-02-14T02:03:12.318Z,19.60
2023-02-14T02:05:46.595Z,26.17
2023-02-14T02:08:16.092Z,20.33
2023-02-14T02:10:44.273Z,19.73
2023-02-14T02:13:18.318Z,19.53
2023-02-14T02:15:57.009Z,20.87
2023-02-14T02:18:32.200Z,18.20
2023-02-14T02:21:31.678Z,18.17
2023-02-14T02:24:16.492Z,17.73
2023-02-14T02:27:20.828Z,20.77
2023-02-14T02:30:36.801Z,18.93
2023-02-14T02:33:46.275Z,22.20
2023-02-14T02:36:29.907Z,20.00
2023-02-14T02:39:12.388Z,18.43
2023-02-14T02:41:54.312Z,18.03
2023-02-14T02:44:29.148Z,19.07
2023-02-14T02:47:07.055Z,17.27
2023-02-14T02:50:02.535Z,21.10
2023-02-14T02:53:01.293Z,15.87
2023-02-14T02:55:52.280Z,18.33
2023-02-14T02:58:22.938Z,20.57
2023-02-14T03:00:54.470Z,20.47
2023-02-14T03:03:42.875Z,19.63
2023-02-14T03:06:11.536Z,20.23
2023-02-14T03:08:41.213Z,19.93
2023-02-14T03:11:10.973Z,22.40
2023-02-14T03:14:01.084Z,19.63
2023-02-14T03:16:35.965Z,22.07
2023-02-14T03:19:52.338Z,20.53
2023-02-14T03:22:30.520Z,19.43
2023-02-14T03:25:11.106Z,18.00
2023-02-14T03:27:46.786Z,20.00
2023-02-14T03:30:24.256Z,18.33
2023-02-14T03:33:01.143Z,19.27
2023-02-14T03:35:34.438Z,19.23
2023-02-14T03:38:08.835Z,18.10
2023-02-14T03:40:43.985Z,15.93
2023-02-14T03:43:16.477Z,18.27
2023-02-14T03:45:51.694Z,17.70
2023-02-14T03:48:24.257Z,19.67
2023-02-14T03:50:55.034Z,16.00
2023-02-14T03:53:27.200Z,15.73
2023-02-14T03:56:06.356Z,18.70
2023-02-14T03:58:39.701Z,18.30
2023-02-14T04:01:15.221Z,20.30
2023-02-14T04:03:45.523Z,20.03
2023-02-14T04:06:13.749Z,17.97
2023-02-14T04:08:41.906Z,18.30
2023-02-14T04:11:11.732Z,17.40
2023-02-14T04:13:41.795Z,16.20
2023-02-14T04:16:10.342Z,17.97
2023-02-14T04:18:55.730Z,17.17
2023-02-14T04:21:23.856Z,17.47
2023-02-14T04:23:52.199Z,13.63
2023-02-14T04:26:21.887Z,13.90
2023-02-14T04:28:49.986Z,13.00
2023-02-14T04:31:18.205Z,13.70
2023-02-14T04:33:48.346Z,15.40
2023-02-14T04:36:16.710Z,17.33
2023-02-14T04:38:46.600Z,18.83
2023-02-14T04:41:15.139Z,17.43
2023-02-14T04:43:45.311Z,15.30
2023-02-14T04:46:13.575Z,29.57
2023-02-14T04:48:41.730Z,20.90
2023-02-14T04:51:09.869Z,17.60
2023-02-14T04:53:40.517Z,18.27
2023-02-14T04:56:09.422Z,19.40
2023-02-14T04:58:37.812Z,18.67
2023-02-14T05:01:08.785Z,19.13
2023-02-14T05:03:37.214Z,17.07
2023-02-14T05:06:05.584Z,18.17
2023-02-14T05:08:34.313Z,17.47
2023-02-14T05:11:02.980Z,19.37
2023-02-14T05:13:32.154Z,19.20
2023-02-14T05:16:00.476Z,21.00
2023-02-14T05:18:32.451Z,21.57
2023-02-14T05:21:01.001Z,28.43
2023-02-14T05:23:29.370Z,21.00
2023-02-14T05:25:57.369Z,20.80
2023-02-14T05:28:25.762Z,20.83
2023-02-14T05:30:54.406Z,18.87
2023-02-14T05:33:22.615Z,17.60
2023-02-14T05:35:54.864Z,17.63
2023-02-14T05:38:23.160Z,17.43
2023-02-14T05:40:51.291Z,16.60
2023-02-14T05:43:19.303Z,20.33
2023-02-14T05:45:47.788Z,18.40
2023-02-14T05:48:16.336Z,21.73
2023-02-14T05:50:45.470Z,18.93
2023-02-14T05:53:16.048Z,23.37
2023-02-14T05:55:44.366Z,19.17
2023-02-14T05:58:13.568Z,26.60
2023-02-14T06:00:42.331Z,26.27
2023-02-14T06:03:10.786Z,23.40
2023-02-14T06:05:39.325Z,23.43
2023-02-14T06:08:07.694Z,23.77
2023-02-14T06:10:37.460Z,26.07
2023-02-14T06:13:08.991Z,19.93
2023-02-14T06:15:37.710Z,24.57
2023-02-14T06:18:06.679Z,25.50
2023-02-14T06:20:35.094Z,23.17
2023-02-14T06:23:03.633Z,25.97
2023-02-14T06:25:33.212Z,25.53
2023-02-14T06:28:03.363Z,24.07
2023-02-14T06:30:31.625Z,23.03
2023-02-14T06:33:00.017Z,27.07
2023-02-14T06:35:28.215Z,35.43
2023-02-14T06:37:56.564Z,43.17
2023-02-14T06:40:25.369Z,36.23
2023-02-14T06:42:53.407Z,32.50
2023-02-14T06:45:24.390Z,35.33
2023-02-14T06:47:52.601Z,39.83
2023-02-14T06:50:21.052Z,39.40
2023-02-14T06:52:49.134Z,35.33
2023-02-14T06:55:17.621Z,66.27
2023-02-14T06:57:46.403Z,105.00
2023-02-14T07:00:16.968Z,60.03
2023-02-14T07:02:47.206Z,37.90
2023-02-14T07:05:19.193Z,91.03
2023-02-14T07:07:47.654Z,38.97
2023-02-14T07:10:16.712Z,30.27
2023-02-14T07:12:46.585Z,63.93
2023-02-14T07:15:15.324Z,159.97
2023-02-14T07:17:44.413Z,159.33
2023-02-14T07:20:15.193Z,70.07
2023-02-14T07:22:43.875Z,52.60
2023-02-14T07:25:12.466Z,209.07
2023-02-14T07:27:41.487Z,198.90
2023-02-14T07:30:11.858Z,175.37
2023-02-14T07:32:43.163Z,164.97
2023-02-14T07:35:15.369Z,183.17
2023-02-14T07:37:44.083Z,160.47
2023-02-14T07:40:15.285Z,331.33
2023-02-14T07:42:44.135Z,82.87
2023-02-14T07:45:22.052Z,37.40
2023-02-14T07:47:50.966Z,159.77
2023-02-14T07:50:21.519Z,143.00
2023-02-14T07:52:50.767Z,108.00
2023-02-14T07:55:22.866Z,180.23
2023-02-14T07:57:53.420Z,130.93
2023-02-14T08:00:23.020Z,101.67
2023-02-14T08:02:51.093Z,123.93
2023-02-14T08:05:20.687Z,83.40
2023-02-14T08:07:48.882Z,109.13
2023-02-14T08:10:17.235Z,97.90
2023-02-14T08:13:00.796Z,76.23
2023-02-14T08:15:48.408Z,74.17
2023-02-14T08:18:17.891Z,75.80
2023-02-14T08:20:53.102Z,54.13
2023-02-14T08:23:22.514Z,88.77
2023-02-14T08:25:52.208Z,158.23
2023-02-14T08:28:23.384Z,55.03
2023-02-14T08:30:52.535Z,64.83
2023-02-14T08:33:20.779Z,57.93
2023-02-14T08:35:52.316Z,61.17
2023-02-14T08:38:21.020Z,132.40
2023-02-14T08:40:49.598Z,151.30
2023-02-14T08:43:17.868Z,71.83
2023-02-14T08:45:46.440Z,65.27
2023-02-14T08:48:16.026Z,67.80
2023-02-14T08:50:44.179Z,106.20
2023-02-14T08:53:15.213Z,60.03
2023-02-14T08:55:43.744Z,70.30
2023-02-14T08:58:12.275Z,47.03
2023-02-14T09:00:40.805Z,58.77
2023-02-14T09:03:10.788Z,138.83
2023-02-14T09:05:39.255Z,74.60
2023-02-14T09:08:08.054Z,83.17
2023-02-14T09:10:38.035Z,63.73
2023-02-14T09:13:07.622Z,65.63
2023-02-14T09:15:36.216Z,48.10
2023-02-14T09:18:05.204Z,46.63
2023-02-14T09:20:33.866Z,47.37
2023-02-14T09:23:02.293Z,39.50
2023-02-14T09:25:30.830Z,44.23
2023-02-14T09:28:00.596Z,46.40
2023-02-14T09:30:29.229Z,49.77
2023-02-14T09:32:57.579Z,45.13
2023-02-14T09:35:25.753Z,45.87
2023-02-14T09:37:53.941Z,49.43
2023-02-14T09:40:22.330Z,45.40
2023-02-14T09:43:00.121Z,46.10
2023-02-14T09:45:33.687Z,52.87
2023-02-14T09:48:10.217Z,44.20
2023-02-14T09:50:43.469Z,56.43
2023-02-14T09:53:21.644Z,54.20
2023-02-14T09:55:57.377Z,46.80
2023-02-14T09:58:33.624Z,49.10
2023-02-14T10:01:12.104Z,48.43
2023-02-14T10:04:03.290Z,45.97
2023-02-14T10:06:45.019Z,43.47
2023-02-14T10:09:24.665Z,50.10
2023-02-14T10:11:53.366Z,40.67
2023-02-14T10:14:25.883Z,40.37
2023-02-14T10:17:01.092Z,42.73
2023-02-14T10:19:36.477Z,42.90
2023-02-14T10:22:09.486Z,39.03
2023-02-14T10:24:41.922Z,38.70
2023-02-14T10:27:19.672Z,38.17
2023-02-14T10:29:47.845Z,39.10
2023-02-14T10:32:22.363Z,39.97
2023-02-14T10:34:52.162Z,38.20
2023-02-14T10:37:34.246Z,35.17
2023-02-14T10:40:20.199Z,35.53
2023-02-14T10:42:54.711Z,37.03
2023-02-14T10:45:30.465Z,35.50
2023-02-14T10:48:07.110Z,37.20
2023-02-14T10:50:41.582Z,35.77
2023-02-14T10:53:19.311Z,31.53
2023-02-14T10:55:55.056Z,33.83
2023-02-14T10:58:25.850Z,33.47
2023-02-14T11:01:00.339Z,35.43
2023-02-14T11:03:31.860Z,34.53
2023-02-14T11:06:00.777Z,33.87
2023-02-14T11:08:33.043Z,31.33
2023-02-14T11:11:09.528Z,32.67
2023-02-14T11:13:40.175Z,30.20
2023-02-14T11:16:11.830Z,29.43
2023-02-14T11:18:43.121Z,31.90
2023-02-14T11:21:12.792Z,33.50
2023-02-14T11:23:43.001Z,33.40
2023-02-14T11:26:22.107Z,32.13
2023-02-14T11:28:54.293Z,33.57
2023-02-14T11:31:34.152Z,32.90
2023-02-14T11:34:07.025Z,31.87
2023-02-14T11:36:45.288Z,33.90
2023-02-14T11:39:27.013Z,30.27
2023-02-14T11:41:57.717Z,31.10
2023-02-14T11:44:28.068Z,31.83
2023-02-14T11:47:17.082Z,27.10
2023-02-14T11:50:02.713Z,29.63
2023-02-14T11:52:41.051Z,29.50
2023-02-14T11:55:26.419Z,37.47
2023-02-14T11:57:57.265Z,34.00
2023-02-14T12:00:31.322Z,29.50
2023-02-14T12:03:01.475Z,27.90
2023-02-14T12:05:35.458Z,28.67
2023-02-14T12:08:06.475Z,24.90
2023-02-14T12:10:37.283Z,27.40
2023-02-14T12:13:26.110Z,27.83
2023-02-14T12:15:57.650Z,28.47
2023-02-14T12:18:53.110Z,27.23
2023-02-14T12:21:48.437Z,27.67
2023-02-14T12:24:28.248Z,25.00
2023-02-14T12:27:06.907Z,29.83
2023-02-14T12:29:40.724Z,25.47
2023-02-14T12:32:17.676Z,35.03
2023-02-14T12:34:45.837Z,57.30
2023-02-14T12:37:21.959Z,116.20
2023-02-14T12:40:07.087Z,32.47
2023-02-14T12:42:49.734Z,30.50
2023-02-14T12:45:26.426Z,26.37
2023-02-14T12:48:06.297Z,23.97
2023-02-14T12:50:45.652Z,180.93
2023-02-14T12:53:48.948Z,24.30
2023-02-14T12:56:35.259Z,21.70
2023-02-14T12:59:17.468Z,128.40
2023-02-14T13:02:28.315Z,23.47
2023-02-14T13:05:01.158Z,20.83
2023-02-14T13:07:53.015Z,25.60
2023-02-14T13:10:30.200Z,27.47
2023-02-14T13:16:03.135Z,19.83
2023-02-14T13:18:42.911Z,28.87
2023-02-14T13:21:13.617Z,20.20
2023-02-14T13:23:45.195Z,22.50
2023-02-14T13:26:17.556Z,20.27
2023-02-14T13:28:52.337Z,21.53
2023-02-14T13:31:23.852Z,18.70
2023-02-14T13:33:55.617Z,20.23
2023-02-14T13:36:25.069Z,20.70
2023-02-14T13:41:25.063Z,39.13
2023-02-14T13:43:57.876Z,22.00
2023-02-14T13:46:51.230Z,21.93
2023-02-14T13:49:29.611Z,17.73
2023-02-14T13:51:59.866Z,16.73
2023-02-14T13:54:37.458Z,19.13
2023-02-14T13:57:31.850Z,17.40
2023-02-14T14:00:47.622Z,19.70
2023-02-14T14:03:54.545Z,21.07
2023-02-14T14:06:23.904Z,20.43
2023-02-14T14:08:56.323Z,18.93
2023-02-14T14:11:58.598Z,19.20
2023-02-14T14:14:40.077Z,40.00
2023-02-14T14:17:26.227Z,20.10
2023-02-14T14:19:58.079Z,20.93
2023-02-14T14:22:27.090Z,21.07
2023-02-14T14:25:01.761Z,19.63
2023-02-14T14:27:35.169Z,19.23
2023-02-14T14:30:05.714Z,18.90
2023-02-14T14:32:37.486Z,19.90
2023-02-14T14:35:20.605Z,19.03
2023-02-14T14:37:52.519Z,20.13
2023-02-14T14:40:26.417Z,18.67
2023-02-14T14:42:55.941Z,16.37
2023-02-14T14:45:27.525Z,17.20
2023-02-14T14:48:00.453Z,19.83
2023-02-14T14:50:33.201Z,16.03
2023-02-14T14:53:04.072Z,17.83
2023-02-14T14:55:35.549Z,17.23
2023-02-14T14:58:05.221Z,17.93
2023-02-14T15:00:35.842Z,17.83
2023-02-14T15:03:07.971Z,18.03
2023-02-14T15:05:40.675Z,17.07
2023-02-14T15:08:23.688Z,16.50
2023-02-14T15:10:56.290Z,15.50
2023-02-14T15:13:49.369Z,15.13
2023-02-14T15:16:24.884Z,13.87
2023-02-14T15:18:56.464Z,14.93
2023-02-14T15:21:26.959Z,13.97
2023-02-14T15:23:55.828Z,15.53
2023-02-14T15:26:28.800Z,14.93
2023-02-14T15:29:00.195Z,17.40
2023-02-14T15:31:37.354Z,18.63
2023-02-14T15:34:06.733Z,19.13
2023-02-14T15:36:37.527Z,18.17
2023-02-14T15:39:10.152Z,17.03
2023-02-14T15:41:43.632Z,17.63
2023-02-14T15:44:20.641Z,17.87
2023-02-14T15:46:49.885Z,19.10
2023-02-14T15:49:22.888Z,17.33
2023-02-14T15:51:53.426Z,21.90
2023-02-14T15:54:27.712Z,20.57
2023-02-14T15:56:56.892Z,18.80
2023-02-14T15:59:29.848Z,18.90
2023-02-14T16:02:01.472Z,19.20
2023-02-14T16:04:32.952Z,20.60
2023-02-14T16:07:25.597Z,20.00
2023-02-14T16:10:15.912Z,20.93
2023-02-14T16:12:44.665Z,20.03
2023-02-14T16:15:20.637Z,19.80
2023-02-14T16:17:49.569Z,20.23
2023-02-14T16:20:29.396Z,19.77
2023-02-14T16:23:20.845Z,22.13
2023-02-14T16:25:49.959Z,22.17
2023-02-14T16:28:18.619Z,19.27
2023-02-14T16:30:48.544Z,20.97
2023-02-14T16:33:21.709Z,20.60
2023-02-14T16:35:51.526Z,23.43
2023-02-14T16:38:22.925Z,23.83
2023-02-14T16:40:54.576Z,21.53
2023-02-14T16:43:23.807Z,22.10
2023-02-14T16:45:52.311Z,21.20
2023-02-14T16:48:20.556Z,25.13
2023-02-14T16:50:49.018Z,23.87
2023-02-14T16:53:36.650Z,24.37
2023-02-14T16:56:04.842Z,28.30
2023-02-14T16:58:36.092Z,23.77
2023-02-14T17:01:05.566Z,22.37
2023-02-14T17:03:35.678Z,24.70
2023-02-14T17:06:06.453Z,23.73
2023-02-14T17:08:39.654Z,24.10
2023-02-14T17:11:08.584Z,24.80
2023-02-14T17:13:41.141Z,24.77
2023-02-14T17:16:13.129Z,26.40
2023-02-14T17:18:47.924Z,29.27
2023-02-14T17:21:18.268Z,23.67
2023-02-14T17:23:48.579Z,25.77
2023-02-14T17:26:18.589Z,24.40
2023-02-14T17:28:47.848Z,24.60
2023-02-14T17:31:17.404Z,26.93
2023-02-14T17:33:46.104Z,25.97
2023-02-14T17:36:15.912Z,26.47
2023-02-14T17:38:45.389Z,25.83
2023-02-14T17:41:22.025Z,26.10
2023-02-14T17:43:52.054Z,25.67
2023-02-14T17:46:20.884Z,28.73
2023-02-14T17:48:50.444Z,29.73
2023-02-14T17:51:22.685Z,32.70
2023-02-14T17:53:51.665Z,36.97
2023-02-14T17:56:23.833Z,33.37
2023-02-14T17:58:55.426Z,28.53
2023-02-14T18:01:26.103Z,30.10
2023-02-14T18:03:55.485Z,39.23
2023-02-14T18:06:24.078Z,34.93
2023-02-14T18:08:53.809Z,32.13
2023-02-14T18:11:26.412Z,36.37
2023-02-14T18:13:55.378Z,38.63
2023-02-14T18:16:24.958Z,34.53
2023-02-14T18:18:55.059Z,34.20
2023-02-14T18:21:24.761Z,49.63
2023-02-14T18:23:52.923Z,48.33
2023-02-14T18:26:21.471Z,37.03
2023-02-14T18:28:51.377Z,49.27
2023-02-14T18:31:20.180Z,43.07
2023-02-14T18:33:49.580Z,45.80
2023-02-14T18:36:21.664Z,114.17
2023-02-14T18:38:50.960Z,39.40
2023-02-14T18:41:21.086Z,39.07
2023-02-14T18:43:51.226Z,37.50
2023-02-14T18:46:21.468Z,46.90
2023-02-14T18:48:50.157Z,60.00
2023-02-14T18:51:20.656Z,46.73
2023-02-14T18:53:52.364Z,138.27
2023-02-14T18:56:22.398Z,155.40
2023-02-14T18:58:57.607Z,46.33
2023-02-14T19:01:29.328Z,31.87
2023-02-14T19:03:59.762Z,59.07
2023-02-14T19:06:29.671Z,53.90
2023-02-14T19:08:59.240Z,97.37
2023-02-14T19:11:31.651Z,83.47
2023-02-14T19:14:03.488Z,121.13
2023-02-14T19:16:34.042Z,48.53
2023-02-14T19:19:03.272Z,114.00
2023-02-14T19:21:33.764Z,37.40
2023-02-14T19:24:03.807Z,30.67
2023-02-14T19:26:37.465Z,55.87
2023-02-14T19:29:11.721Z,51.50
2023-02-14T19:31:43.038Z,62.33
2023-02-14T19:34:17.640Z,28.30
2023-02-14T19:36:46.407Z,44.27
2023-02-14T19:39:15.289Z,34.13
2023-02-14T19:41:43.886Z,34.57
2023-02-14T19:44:15.724Z,30.30
2023-02-14T19:46:46.590Z,45.80
2023-02-14T19:49:16.646Z,35.20
2023-02-14T19:51:46.127Z,38.73
2023-02-14T19:54:16.054Z,32.00
2023-02-14T19:56:46.621Z,30.67
2023-02-14T19:59:20.378Z,27.87
2023-02-14T20:01:51.607Z,33.20
2023-02-14T20:04:23.977Z,34.20
2023-02-14T20:06:53.270Z,31.60
2023-02-14T20:09:23.174Z,30.90
2023-02-14T20:11:54.509Z,24.37
2023-02-14T20:14:26.782Z,25.80
2023-02-14T20:16:56.913Z,24.20
2023-02-14T20:19:29.506Z,22.43
2023-02-14T20:21:57.691Z,22.27
2023-02-14T20:24:28.647Z,20.23
2023-02-14T20:26:57.840Z,24.37
2023-02-14T20:29:28.097Z,25.43
2023-02-14T20:32:00.236Z,43.93
2023-02-14T20:34:30.312Z,30.57
2023-02-14T20:36:59.357Z,23.17
2023-02-14T20:39:31.847Z,25.20
2023-02-14T20:42:01.145Z,23.97
2023-02-14T20:44:31.214Z,21.77
2023-02-14T20:47:00.264Z,22.93
2023-02-14T20:49:30.845Z,26.10
2023-02-14T20:51:59.785Z,24.10
2023-02-14T20:54:30.430Z,24.00
2023-02-14T20:57:02.140Z,23.67
2023-02-14T20:59:37.842Z,21.50
2023-02-14T21:02:07.685Z,24.70
2023-02-14T21:04:35.995Z,21.87
2023-02-14T21:07:08.911Z,26.40
2023-02-14T21:09:37.968Z,22.83
2023-02-14T21:12:07.219Z,24.50
2023-02-14T21:14:36.899Z,24.53
2023-02-14T21:17:05.872Z,25.27
2023-02-14T21:19:35.365Z,29.50
2023-02-14T21:22:03.784Z,33.87
2023-02-14T21:24:32.530Z,32.03
2023-02-14T21:27:02.020Z,36.90
2023-02-14T21:29:30.833Z,34.87
2023-02-14T21:32:03.434Z,38.57
2023-02-14T21:34:32.287Z,35.07
2023-02-14T21:37:00.729Z,39.20
2023-02-14T21:39:31.126Z,36.03
2023-02-14T21:41:59.888Z,35.77
2023-02-14T21:44:45.290Z,35.93
2023-02-14T21:47:15.431Z,35.90
2023-02-14T21:50:01.023Z,34.50
2023-02-14T21:52:30.442Z,36.63
2023-02-14T21:54:58.939Z,29.73
2023-02-14T21:57:30.852Z,31.43
2023-02-14T21:59:59.033Z,30.57
2023-02-14T22:02:32.744Z,39.27
2023-02-14T22:05:01.164Z,38.93
2023-02-14T22:07:30.357Z,32.77
2023-02-14T22:10:01.772Z,30.13
2023-02-14T22:12:30.759Z,33.77
2023-02-14T22:15:02.183Z,54.47
2023-02-14T22:17:34.213Z,73.53
2023-02-14T22:20:02.481Z,42.37
2023-02-14T22:22:30.799Z,49.03
2023-02-14T22:24:59.229Z,81.53
2023-02-14T22:27:27.479Z,117.23
2023-02-14T22:29:55.732Z,160.70
2023-02-14T22:32:26.294Z,48.90
2023-02-14T22:34:56.538Z,50.67
2023-02-14T22:37:24.868Z,67.37
2023-02-14T22:39:52.935Z,38.07
2023-02-14T22:42:21.292Z,66.33
2023-02-14T22:44:50.146Z,70.80
2023-02-14T22:47:18.458Z,88.13
2023-02-14T22:49:46.957Z,41.07
2023-02-14T22:52:16.716Z,61.53
2023-02-14T22:54:45.217Z,99.30
2023-02-14T22:57:14.101Z,60.53
2023-02-14T22:59:42.343Z,151.90
2023-02-14T23:02:11.372Z,151.67
2023-02-14T23:04:39.691Z,280.70
2023-02-14T23:07:07.848Z,226.47
2023-02-14T23:09:37.580Z,47.40
2023-02-14T23:12:27.729Z,115.90
2023-02-14T23:15:12.688Z,162.10
2023-02-14T23:17:58.853Z,99.47
2023-02-14T23:20:45.534Z,194.10
2023-02-14T23:23:13.886Z,91.90
2023-02-14T23:25:44.674Z,159.10
2023-02-14T23:28:12.985Z,134.37
2023-02-14T23:30:41.220Z,149.73
2023-02-14T23:33:09.736Z,125.30
2023-02-14T23:35:38.656Z,95.43
2023-02-14T23:38:07.237Z,216.20
2023-02-14T23:40:56.008Z,175.07
2023-02-14T23:43:25.783Z,173.63
2023-02-14T23:45:54.204Z,107.30
2023-02-14T23:48:22.514Z,90.30
2023-02-14T23:50:50.945Z,119.47
2023-02-14T23:53:19.395Z,145.90
2023-02-14T23:55:48.008Z,90.13
2023-02-14T23:58:16.193Z,84.17
